sensor_id;sensor_type;location;lat;lon;timestamp;temperature;humidity
65038;DHT22;51605;47.040;15.294;2023-12-29T00:00:38;20.80;50.80
65038;DHT22;51605;47.040;15.294;2023-12-29T00:03:04;20.80;50.80
65038;DHT22;51605;47.040;15.294;2023-12-29T00:05:29;20.80;50.80
65038;DHT22;51605;47.040;15.294;2023-12-29T00:07:56;20.80;50.80
65038;DHT22;51605;47.040;15.294;2023-12-29T00:10:21;20.80;50.80
65038;DHT22;51605;47.040;15.294;2023-12-29T00:12:47;20.80;50.70
65038;DHT22;51605;47.040;15.294;2023-12-29T00:15:12;20.80;50.80
65038;DHT22;51605;47.040;15.294;2023-12-29T00:17:38;20.80;50.80
65038;DHT22;51605;47.040;15.294;2023-12-29T00:20:06;20.80;50.80
65038;DHT22;51605;47.040;15.294;2023-12-29T00:22:35;20.80;50.70
65038;DHT22;51605;47.040;15.294;2023-12-29T00:25:01;20.80;50.70
65038;DHT22;51605;47.040;15.294;2023-12-29T00:27:28;20.80;50.80
65038;DHT22;51605;47.040;15.294;2023-12-29T00:29:53;20.80;50.70
65038;DHT22;51605;47.040;15.294;2023-12-29T00:32:19;20.80;50.80
65038;DHT22;51605;47.040;15.294;2023-12-29T00:34:45;20.80;50.70
65038;DHT22;51605;47.040;15.294;2023-12-29T00:37:11;20.80;50.80
65038;DHT22;51605;47.040;15.294;2023-12-29T00:39:37;20.80;50.80
65038;DHT22;51605;47.040;15.294;2023-12-29T00:42:06;20.80;50.70
65038;DHT22;51605;47.040;15.294;2023-12-29T00:44:32;20.80;50.70
65038;DHT22;51605;47.040;15.294;2023-12-29T00:46:58;20.80;50.70
65038;DHT22;51605;47.040;15.294;2023-12-29T00:49:24;20.80;50.70
65038;DHT22;51605;47.040;15.294;2023-12-29T00:51:49;20.80;50.70
65038;DHT22;51605;47.040;15.294;2023-12-29T00:54:15;20.80;50.70
65038;DHT22;51605;47.040;15.294;2023-12-29T00:56:41;20.80;50.70
65038;DHT22;51605;47.040;15.294;2023-12-29T00:59:06;20.80;50.70
65038;DHT22;51605;47.040;15.294;2023-12-29T01:01:36;20.80;50.70
65038;DHT22;51605;47.040;15.294;2023-12-29T01:04:02;20.80;50.80
65038;DHT22;51605;47.040;15.294;2023-12-29T01:06:27;20.80;50.80
65038;DHT22;51605;47.040;15.294;2023-12-29T01:08:53;20.80;50.80
65038;DHT22;51605;47.040;15.294;2023-12-29T01:11:19;20.80;50.70
65038;DHT22;51605;47.040;15.294;2023-12-29T01:13:44;20.80;50.80
65038;DHT22;51605;47.040;15.294;2023-12-29T01:16:10;20.80;50.70
65038;DHT22;51605;47.040;15.294;2023-12-29T01:18:36;20.80;50.80
65038;DHT22;51605;47.040;15.294;2023-12-29T01:21:01;20.80;50.70
65038;DHT22;51605;47.040;15.294;2023-12-29T01:23:27;20.80;50.70
65038;DHT22;51605;47.040;15.294;2023-12-29T01:25:53;20.80;50.70
65038;DHT22;51605;47.040;15.294;2023-12-29T01:28:18;20.80;50.80
65038;DHT22;51605;47.040;15.294;2023-12-29T01:30:44;20.80;50.80
65038;DHT22;51605;47.040;15.294;2023-12-29T01:33:09;20.80;50.80
65038;DHT22;51605;47.040;15.294;2023-12-29T01:35:35;20.80;50.80
65038;DHT22;51605;47.040;15.294;2023-12-29T01:38:02;20.80;50.80
65038;DHT22;51605;47.040;15.294;2023-12-29T01:40:28;20.80;50.80
65038;DHT22;51605;47.040;15.294;2023-12-29T01:42:54;20.80;50.70
65038;DHT22;51605;47.040;15.294;2023-12-29T01:45:23;20.80;50.70
65038;DHT22;51605;47.040;15.294;2023-12-29T01:47:52;20.80;50.80
65038;DHT22;51605;47.040;15.294;2023-12-29T01:50:20;20.80;50.80
65038;DHT22;51605;47.040;15.294;2023-12-29T01:52:48;20.80;50.80
65038;DHT22;51605;47.040;15.294;2023-12-29T01:55:18;20.80;50.70
65038;DHT22;51605;47.040;15.294;2023-12-29T01:57:45;20.80;50.70
65038;DHT22;51605;47.040;15.294;2023-12-29T02:00:12;20.80;50.70
65038;DHT22;51605;47.040;15.294;2023-12-29T02:02:39;20.80;50.80
65038;DHT22;51605;47.040;15.294;2023-12-29T02:05:05;20.80;50.70
65038;DHT22;51605;47.040;15.294;2023-12-29T02:07:32;20.80;50.70
65038;DHT22;51605;47.040;15.294;2023-12-29T02:09:58;20.80;50.70
65038;DHT22;51605;47.040;15.294;2023-12-29T02:12:25;20.80;50.70
65038;DHT22;51605;47.040;15.294;2023-12-29T02:14:51;20.80;50.70
65038;DHT22;51605;47.040;15.294;2023-12-29T02:17:30;20.80;50.70
65038;DHT22;51605;47.040;15.294;2023-12-29T02:19:57;20.80;50.70
65038;DHT22;51605;47.040;15.294;2023-12-29T02:22:22;20.80;50.70
65038;DHT22;51605;47.040;15.294;2023-12-29T02:24:51;20.80;50.70
65038;DHT22;51605;47.040;15.294;2023-12-29T02:27:43;20.80;50.70
65038;DHT22;51605;47.040;15.294;2023-12-29T02:30:24;20.80;50.70
65038;DHT22;51605;47.040;15.294;2023-12-29T02:33:00;20.70;50.60
65038;DHT22;51605;47.040;15.294;2023-12-29T02:35:34;20.80;50.90
65038;DHT22;51605;47.040;15.294;2023-12-29T02:38:01;20.80;50.80
65038;DHT22;51605;47.040;15.294;2023-12-29T02:40:27;20.80;50.80
65038;DHT22;51605;47.040;15.294;2023-12-29T02:42:53;20.80;50.70
65038;DHT22;51605;47.040;15.294;2023-12-29T02:45:19;20.80;50.70
65038;DHT22;51605;47.040;15.294;2023-12-29T02:47:44;20.80;50.70
65038;DHT22;51605;47.040;15.294;2023-12-29T02:50:10;20.80;50.80
65038;DHT22;51605;47.040;15.294;2023-12-29T02:52:36;20.80;50.70
65038;DHT22;51605;47.040;15.294;2023-12-29T02:55:02;20.80;50.70
65038;DHT22;51605;47.040;15.294;2023-12-29T02:57:28;20.80;50.70
65038;DHT22;51605;47.040;15.294;2023-12-29T02:59:55;20.80;50.80
65038;DHT22;51605;47.040;15.294;2023-12-29T03:02:22;20.80;50.70
65038;DHT22;51605;47.040;15.294;2023-12-29T03:04:47;20.80;50.70
65038;DHT22;51605;47.040;15.294;2023-12-29T03:07:13;20.80;50.70
65038;DHT22;51605;47.040;15.294;2023-12-29T03:09:39;20.80;50.80
65038;DHT22;51605;47.040;15.294;2023-12-29T03:12:05;20.80;50.70
65038;DHT22;51605;47.040;15.294;2023-12-29T03:14:31;20.70;50.70
65038;DHT22;51605;47.040;15.294;2023-12-29T03:16:57;20.80;50.80
65038;DHT22;51605;47.040;15.294;2023-12-29T03:19:23;20.80;50.80
65038;DHT22;51605;47.040;15.294;2023-12-29T03:21:48;20.80;50.80
65038;DHT22;51605;47.040;15.294;2023-12-29T03:24:14;20.80;50.80
65038;DHT22;51605;47.040;15.294;2023-12-29T03:26:40;20.80;50.80
65038;DHT22;51605;47.040;15.294;2023-12-29T03:29:06;20.80;50.80
65038;DHT22;51605;47.040;15.294;2023-12-29T03:31:32;20.80;50.80
65038;DHT22;51605;47.040;15.294;2023-12-29T03:33:57;20.80;50.70
65038;DHT22;51605;47.040;15.294;2023-12-29T03:36:23;20.80;50.80
65038;DHT22;51605;47.040;15.294;2023-12-29T03:38:49;20.80;50.70
65038;DHT22;51605;47.040;15.294;2023-12-29T03:41:14;20.70;50.70
65038;DHT22;51605;47.040;15.294;2023-12-29T03:43:40;20.80;50.70
65038;DHT22;51605;47.040;15.294;2023-12-29T03:46:19;20.70;50.70
65038;DHT22;51605;47.040;15.294;2023-12-29T03:48:45;20.70;50.70
65038;DHT22;51605;47.040;15.294;2023-12-29T03:51:11;20.80;50.80
65038;DHT22;51605;47.040;15.294;2023-12-29T03:53:37;20.80;50.80
65038;DHT22;51605;47.040;15.294;2023-12-29T03:56:13;20.80;51.20
65038;DHT22;51605;47.040;15.294;2023-12-29T03:58:38;20.80;50.70
65038;DHT22;51605;47.040;15.294;2023-12-29T04:01:12;20.80;50.70
65038;DHT22;51605;47.040;15.294;2023-12-29T04:03:39;20.70;50.70
65038;DHT22;51605;47.040;15.294;2023-12-29T04:06:05;20.70;50.70
65038;DHT22;51605;47.040;15.294;2023-12-29T04:08:36;20.80;50.70
65038;DHT22;51605;47.040;15.294;2023-12-29T04:11:02;20.80;50.80
65038;DHT22;51605;47.040;15.294;2023-12-29T04:13:28;20.80;50.70
65038;DHT22;51605;47.040;15.294;2023-12-29T04:15:54;20.80;50.70
65038;DHT22;51605;47.040;15.294;2023-12-29T04:18:22;20.80;50.80
65038;DHT22;51605;47.040;15.294;2023-12-29T04:20:48;20.80;50.70
65038;DHT22;51605;47.040;15.294;2023-12-29T04:23:14;20.80;50.70
65038;DHT22;51605;47.040;15.294;2023-12-29T04:25:39;20.70;50.70
65038;DHT22;51605;47.040;15.294;2023-12-29T04:28:06;20.80;50.80
65038;DHT22;51605;47.040;15.294;2023-12-29T04:30:33;20.70;50.70
65038;DHT22;51605;47.040;15.294;2023-12-29T04:32:58;20.80;50.70
65038;DHT22;51605;47.040;15.294;2023-12-29T04:35:24;20.80;50.70
65038;DHT22;51605;47.040;15.294;2023-12-29T04:37:50;20.80;50.70
65038;DHT22;51605;47.040;15.294;2023-12-29T04:40:16;20.80;50.70
65038;DHT22;51605;47.040;15.294;2023-12-29T04:42:42;20.80;50.70
65038;DHT22;51605;47.040;15.294;2023-12-29T04:45:08;20.80;50.70
65038;DHT22;51605;47.040;15.294;2023-12-29T04:47:34;20.80;50.70
65038;DHT22;51605;47.040;15.294;2023-12-29T04:50:00;20.80;50.70
65038;DHT22;51605;47.040;15.294;2023-12-29T04:52:25;20.80;50.70
65038;DHT22;51605;47.040;15.294;2023-12-29T04:54:51;20.80;50.80
65038;DHT22;51605;47.040;15.294;2023-12-29T04:57:16;20.80;50.70
65038;DHT22;51605;47.040;15.294;2023-12-29T04:59:42;20.80;50.70
65038;DHT22;51605;47.040;15.294;2023-12-29T05:02:08;20.80;50.70
65038;DHT22;51605;47.040;15.294;2023-12-29T05:04:33;20.80;50.70
65038;DHT22;51605;47.040;15.294;2023-12-29T05:06:59;20.80;50.80
65038;DHT22;51605;47.040;15.294;2023-12-29T05:09:25;20.80;50.70
65038;DHT22;51605;47.040;15.294;2023-12-29T05:11:50;20.70;50.60
65038;DHT22;51605;47.040;15.294;2023-12-29T05:14:16;20.80;50.70
65038;DHT22;51605;47.040;15.294;2023-12-29T05:16:42;20.80;50.80
65038;DHT22;51605;47.040;15.294;2023-12-29T05:19:08;20.80;50.70
65038;DHT22;51605;47.040;15.294;2023-12-29T05:21:34;20.80;50.70
65038;DHT22;51605;47.040;15.294;2023-12-29T05:23:59;20.80;50.70
65038;DHT22;51605;47.040;15.294;2023-12-29T05:26:25;20.70;50.70
65038;DHT22;51605;47.040;15.294;2023-12-29T05:28:51;20.80;50.70
65038;DHT22;51605;47.040;15.294;2023-12-29T05:31:17;20.80;50.70
65038;DHT22;51605;47.040;15.294;2023-12-29T05:33:44;20.80;50.70
65038;DHT22;51605;47.040;15.294;2023-12-29T05:36:10;20.80;50.60
65038;DHT22;51605;47.040;15.294;2023-12-29T05:38:37;20.80;50.70
65038;DHT22;51605;47.040;15.294;2023-12-29T05:41:03;20.80;50.70
65038;DHT22;51605;47.040;15.294;2023-12-29T05:43:30;20.80;50.60
65038;DHT22;51605;47.040;15.294;2023-12-29T05:45:56;20.80;50.60
65038;DHT22;51605;47.040;15.294;2023-12-29T05:48:22;20.80;50.50
65038;DHT22;51605;47.040;15.294;2023-12-29T05:50:49;20.80;50.50
65038;DHT22;51605;47.040;15.294;2023-12-29T05:53:15;20.80;50.60
65038;DHT22;51605;47.040;15.294;2023-12-29T05:55:41;20.80;50.60
65038;DHT22;51605;47.040;15.294;2023-12-29T05:58:07;20.80;50.70
65038;DHT22;51605;47.040;15.294;2023-12-29T06:00:33;20.80;50.60
65038;DHT22;51605;47.040;15.294;2023-12-29T06:02:58;20.80;50.70
65038;DHT22;51605;47.040;15.294;2023-12-29T06:05:24;20.70;50.70
65038;DHT22;51605;47.040;15.294;2023-12-29T06:07:50;20.80;50.70
65038;DHT22;51605;47.040;15.294;2023-12-29T06:10:16;20.80;50.70
65038;DHT22;51605;47.040;15.294;2023-12-29T06:12:42;20.80;50.70
65038;DHT22;51605;47.040;15.294;2023-12-29T06:15:08;20.80;50.60
65038;DHT22;51605;47.040;15.294;2023-12-29T06:17:33;20.80;50.60
65038;DHT22;51605;47.040;15.294;2023-12-29T06:20:01;20.80;50.60
65038;DHT22;51605;47.040;15.294;2023-12-29T06:22:29;20.80;50.60
65038;DHT22;51605;47.040;15.294;2023-12-29T06:24:55;20.80;50.70
65038;DHT22;51605;47.040;15.294;2023-12-29T06:27:20;20.80;50.60
65038;DHT22;51605;47.040;15.294;2023-12-29T06:29:46;20.80;50.60
65038;DHT22;51605;47.040;15.294;2023-12-29T06:32:12;20.80;50.60
65038;DHT22;51605;47.040;15.294;2023-12-29T06:34:37;20.80;50.70
65038;DHT22;51605;47.040;15.294;2023-12-29T06:37:03;20.80;50.70
65038;DHT22;51605;47.040;15.294;2023-12-29T06:39:29;20.70;50.70
65038;DHT22;51605;47.040;15.294;2023-12-29T06:41:55;20.80;50.70
65038;DHT22;51605;47.040;15.294;2023-12-29T06:44:20;20.80;50.60
65038;DHT22;51605;47.040;15.294;2023-12-29T06:46:46;20.80;50.70
65038;DHT22;51605;47.040;15.294;2023-12-29T06:49:12;20.80;50.70
65038;DHT22;51605;47.040;15.294;2023-12-29T06:51:38;20.80;50.80
65038;DHT22;51605;47.040;15.294;2023-12-29T06:54:07;20.80;50.70
65038;DHT22;51605;47.040;15.294;2023-12-29T06:56:32;20.80;50.70
65038;DHT22;51605;47.040;15.294;2023-12-29T06:58:58;20.80;50.70
65038;DHT22;51605;47.040;15.294;2023-12-29T07:01:24;20.70;50.60
65038;DHT22;51605;47.040;15.294;2023-12-29T07:03:50;20.70;50.70
65038;DHT22;51605;47.040;15.294;2023-12-29T07:06:16;20.70;50.70
65038;DHT22;51605;47.040;15.294;2023-12-29T07:08:41;20.70;50.70
65038;DHT22;51605;47.040;15.294;2023-12-29T07:11:11;20.70;50.70
65038;DHT22;51605;47.040;15.294;2023-12-29T07:13:37;20.70;50.70
65038;DHT22;51605;47.040;15.294;2023-12-29T07:16:03;20.70;50.60
65038;DHT22;51605;47.040;15.294;2023-12-29T07:18:29;20.70;50.60
65038;DHT22;51605;47.040;15.294;2023-12-29T07:20:55;20.70;50.60
65038;DHT22;51605;47.040;15.294;2023-12-29T07:23:20;20.70;50.40
65038;DHT22;51605;47.040;15.294;2023-12-29T07:25:47;20.70;50.40
65038;DHT22;51605;47.040;15.294;2023-12-29T07:28:13;20.70;50.50
65038;DHT22;51605;47.040;15.294;2023-12-29T07:30:39;20.70;50.30
65038;DHT22;51605;47.040;15.294;2023-12-29T07:33:04;20.70;50.30
65038;DHT22;51605;47.040;15.294;2023-12-29T07:35:30;20.80;50.30
65038;DHT22;51605;47.040;15.294;2023-12-29T07:37:56;20.80;50.30
65038;DHT22;51605;47.040;15.294;2023-12-29T07:40:22;20.80;50.40
65038;DHT22;51605;47.040;15.294;2023-12-29T07:42:48;20.70;50.30
65038;DHT22;51605;47.040;15.294;2023-12-29T07:45:16;20.80;50.40
65038;DHT22;51605;47.040;15.294;2023-12-29T07:47:42;20.70;50.30
65038;DHT22;51605;47.040;15.294;2023-12-29T07:50:08;20.70;50.30
65038;DHT22;51605;47.040;15.294;2023-12-29T07:52:34;20.80;50.40
65038;DHT22;51605;47.040;15.294;2023-12-29T07:54:59;20.70;50.40
65038;DHT22;51605;47.040;15.294;2023-12-29T07:57:25;20.70;50.40
65038;DHT22;51605;47.040;15.294;2023-12-29T07:59:51;20.70;50.40
65038;DHT22;51605;47.040;15.294;2023-12-29T08:02:17;20.70;50.40
65038;DHT22;51605;47.040;15.294;2023-12-29T08:04:42;20.70;50.40
65038;DHT22;51605;47.040;15.294;2023-12-29T08:07:10;20.70;50.40
65038;DHT22;51605;47.040;15.294;2023-12-29T08:09:36;20.70;50.40
65038;DHT22;51605;47.040;15.294;2023-12-29T08:12:02;20.70;50.40
65038;DHT22;51605;47.040;15.294;2023-12-29T08:14:27;20.70;50.40
65038;DHT22;51605;47.040;15.294;2023-12-29T08:16:53;20.70;50.40
65038;DHT22;51605;47.040;15.294;2023-12-29T08:19:19;20.70;50.40
65038;DHT22;51605;47.040;15.294;2023-12-29T08:21:45;20.70;50.40
65038;DHT22;51605;47.040;15.294;2023-12-29T08:24:10;20.80;50.40
65038;DHT22;51605;47.040;15.294;2023-12-29T08:26:45;20.70;50.40
65038;DHT22;51605;47.040;15.294;2023-12-29T08:29:14;20.80;50.40
65038;DHT22;51605;47.040;15.294;2023-12-29T08:31:39;20.70;50.40
65038;DHT22;51605;47.040;15.294;2023-12-29T08:34:05;20.70;50.30
65038;DHT22;51605;47.040;15.294;2023-12-29T08:36:31;20.70;50.40
65038;DHT22;51605;47.040;15.294;2023-12-29T08:38:56;20.80;50.40
65038;DHT22;51605;47.040;15.294;2023-12-29T08:41:22;20.70;50.40
65038;DHT22;51605;47.040;15.294;2023-12-29T08:43:48;20.70;50.50
65038;DHT22;51605;47.040;15.294;2023-12-29T08:46:13;20.70;50.50
65038;DHT22;51605;47.040;15.294;2023-12-29T08:48:39;20.70;50.40
65038;DHT22;51605;47.040;15.294;2023-12-29T08:51:05;20.70;50.40
65038;DHT22;51605;47.040;15.294;2023-12-29T08:53:31;20.70;50.50
65038;DHT22;51605;47.040;15.294;2023-12-29T08:56:03;20.70;50.50
65038;DHT22;51605;47.040;15.294;2023-12-29T08:58:29;20.70;50.40
65038;DHT22;51605;47.040;15.294;2023-12-29T09:00:55;20.70;50.50
65038;DHT22;51605;47.040;15.294;2023-12-29T09:03:21;20.70;50.50
65038;DHT22;51605;47.040;15.294;2023-12-29T09:05:46;20.70;50.50
65038;DHT22;51605;47.040;15.294;2023-12-29T09:08:12;20.70;50.50
65038;DHT22;51605;47.040;15.294;2023-12-29T09:10:38;20.70;50.50
65038;DHT22;51605;47.040;15.294;2023-12-29T09:13:04;20.70;50.50
65038;DHT22;51605;47.040;15.294;2023-12-29T09:15:30;20.70;50.50
65038;DHT22;51605;47.040;15.294;2023-12-29T09:17:56;20.70;50.50
65038;DHT22;51605;47.040;15.294;2023-12-29T09:20:21;20.70;50.50
65038;DHT22;51605;47.040;15.294;2023-12-29T09:22:47;20.70;50.50
65038;DHT22;51605;47.040;15.294;2023-12-29T09:25:13;20.70;50.50
65038;DHT22;51605;47.040;15.294;2023-12-29T09:27:39;20.70;50.50
65038;DHT22;51605;47.040;15.294;2023-12-29T09:30:05;20.70;50.50
65038;DHT22;51605;47.040;15.294;2023-12-29T09:32:31;20.70;50.60
65038;DHT22;51605;47.040;15.294;2023-12-29T09:34:57;20.70;50.50
65038;DHT22;51605;47.040;15.294;2023-12-29T09:37:22;20.70;50.50
65038;DHT22;51605;47.040;15.294;2023-12-29T09:39:48;20.70;50.50
65038;DHT22;51605;47.040;15.294;2023-12-29T09:42:21;20.70;50.50
65038;DHT22;51605;47.040;15.294;2023-12-29T09:44:51;20.70;50.50
65038;DHT22;51605;47.040;15.294;2023-12-29T09:47:24;20.70;50.50
65038;DHT22;51605;47.040;15.294;2023-12-29T09:49:52;20.80;50.50
65038;DHT22;51605;47.040;15.294;2023-12-29T09:52:21;20.80;50.50
65038;DHT22;51605;47.040;15.294;2023-12-29T09:54:49;20.70;50.50
65038;DHT22;51605;47.040;15.294;2023-12-29T09:57:17;20.70;50.50
65038;DHT22;51605;47.040;15.294;2023-12-29T09:59:43;20.70;50.40
65038;DHT22;51605;47.040;15.294;2023-12-29T10:02:15;20.70;50.50
65038;DHT22;51605;47.040;15.294;2023-12-29T10:04:44;20.70;50.40
65038;DHT22;51605;47.040;15.294;2023-12-29T10:07:15;20.70;50.40
65038;DHT22;51605;47.040;15.294;2023-12-29T10:09:45;20.70;50.50
65038;DHT22;51605;47.040;15.294;2023-12-29T10:12:13;20.70;50.40
65038;DHT22;51605;47.040;15.294;2023-12-29T10:15:04;20.70;50.50
65038;DHT22;51605;47.040;15.294;2023-12-29T10:17:36;20.70;50.50
65038;DHT22;51605;47.040;15.294;2023-12-29T10:20:16;20.70;50.50
65038;DHT22;51605;47.040;15.294;2023-12-29T10:25:26;20.70;50.50
65038;DHT22;51605;47.040;15.294;2023-12-29T10:27:52;20.70;50.50
65038;DHT22;51605;47.040;15.294;2023-12-29T10:30:18;20.70;50.50
65038;DHT22;51605;47.040;15.294;2023-12-29T10:32:49;20.70;50.60
65038;DHT22;51605;47.040;15.294;2023-12-29T10:35:16;20.70;50.60
65038;DHT22;51605;47.040;15.294;2023-12-29T10:37:42;20.70;50.60
65038;DHT22;51605;47.040;15.294;2023-12-29T10:40:08;20.70;50.50
65038;DHT22;51605;47.040;15.294;2023-12-29T10:42:34;20.80;50.50
65038;DHT22;51605;47.040;15.294;2023-12-29T10:45:09;20.70;50.50
65038;DHT22;51605;47.040;15.294;2023-12-29T10:47:43;20.70;50.40
65038;DHT22;51605;47.040;15.294;2023-12-29T10:50:09;20.70;50.40
65038;DHT22;51605;47.040;15.294;2023-12-29T10:52:35;20.80;50.60
65038;DHT22;51605;47.040;15.294;2023-12-29T10:55:06;20.80;50.50
65038;DHT22;51605;47.040;15.294;2023-12-29T10:57:32;20.70;50.50
65038;DHT22;51605;47.040;15.294;2023-12-29T10:59:58;20.70;50.50
65038;DHT22;51605;47.040;15.294;2023-12-29T11:02:25;20.80;50.60
65038;DHT22;51605;47.040;15.294;2023-12-29T11:04:52;20.80;50.50
65038;DHT22;51605;47.040;15.294;2023-12-29T11:07:41;20.80;50.40
65038;DHT22;51605;47.040;15.294;2023-12-29T11:10:09;20.80;50.40
65038;DHT22;51605;47.040;15.294;2023-12-29T11:12:37;20.80;50.40
65038;DHT22;51605;47.040;15.294;2023-12-29T11:15:03;20.80;50.50
65038;DHT22;51605;47.040;15.294;2023-12-29T11:17:30;20.80;50.60
65038;DHT22;51605;47.040;15.294;2023-12-29T11:19:59;20.80;50.50
65038;DHT22;51605;47.040;15.294;2023-12-29T11:22:28;20.80;50.50
65038;DHT22;51605;47.040;15.294;2023-12-29T11:24:54;20.80;50.70
65038;DHT22;51605;47.040;15.294;2023-12-29T11:27:19;20.70;50.50
65038;DHT22;51605;47.040;15.294;2023-12-29T11:29:46;20.70;50.60
65038;DHT22;51605;47.040;15.294;2023-12-29T11:32:16;20.70;50.70
65038;DHT22;51605;47.040;15.294;2023-12-29T11:34:51;20.80;50.60
65038;DHT22;51605;47.040;15.294;2023-12-29T11:38:03;20.80;50.70
65038;DHT22;51605;47.040;15.294;2023-12-29T11:40:36;20.70;50.70
65038;DHT22;51605;47.040;15.294;2023-12-29T11:43:15;20.70;51.60
65038;DHT22;51605;47.040;15.294;2023-12-29T11:45:42;20.70;50.70
65038;DHT22;51605;47.040;15.294;2023-12-29T11:48:08;20.70;50.70
65038;DHT22;51605;47.040;15.294;2023-12-29T11:50:37;20.70;50.70
65038;DHT22;51605;47.040;15.294;2023-12-29T11:53:04;20.80;50.80
65038;DHT22;51605;47.040;15.294;2023-12-29T11:55:37;20.70;50.70
65038;DHT22;51605;47.040;15.294;2023-12-29T11:58:04;20.80;50.70
65038;DHT22;51605;47.040;15.294;2023-12-29T12:00:46;20.70;50.60
65038;DHT22;51605;47.040;15.294;2023-12-29T12:03:26;20.70;51.40
65038;DHT22;51605;47.040;15.294;2023-12-29T12:05:53;20.70;50.50
65038;DHT22;51605;47.040;15.294;2023-12-29T12:08:40;20.70;50.60
65038;DHT22;51605;47.040;15.294;2023-12-29T12:14:01;20.70;50.60
65038;DHT22;51605;47.040;15.294;2023-12-29T12:19:11;20.70;50.60
65038;DHT22;51605;47.040;15.294;2023-12-29T12:21:37;20.70;50.50
65038;DHT22;51605;47.040;15.294;2023-12-29T12:24:04;20.70;50.50
65038;DHT22;51605;47.040;15.294;2023-12-29T12:26:33;20.70;50.50
65038;DHT22;51605;47.040;15.294;2023-12-29T12:29:00;20.70;50.50
65038;DHT22;51605;47.040;15.294;2023-12-29T12:31:26;20.70;50.50
65038;DHT22;51605;47.040;15.294;2023-12-29T12:33:58;20.70;50.60
65038;DHT22;51605;47.040;15.294;2023-12-29T12:36:28;20.70;50.60
65038;DHT22;51605;47.040;15.294;2023-12-29T12:38:54;20.70;50.50
65038;DHT22;51605;47.040;15.294;2023-12-29T12:41:24;20.80;50.60
65038;DHT22;51605;47.040;15.294;2023-12-29T12:46:41;20.80;50.60
65038;DHT22;51605;47.040;15.294;2023-12-29T12:49:09;20.80;50.60
65038;DHT22;51605;47.040;15.294;2023-12-29T12:51:35;20.80;50.70
65038;DHT22;51605;47.040;15.294;2023-12-29T12:54:01;20.80;50.70
65038;DHT22;51605;47.040;15.294;2023-12-29T12:56:27;20.70;50.50
65038;DHT22;51605;47.040;15.294;2023-12-29T12:58:57;20.70;50.60
65038;DHT22;51605;47.040;15.294;2023-12-29T13:01:24;20.70;50.70
65038;DHT22;51605;47.040;15.294;2023-12-29T13:03:50;20.70;50.60
65038;DHT22;51605;47.040;15.294;2023-12-29T13:06:16;20.70;50.60
65038;DHT22;51605;47.040;15.294;2023-12-29T13:08:43;20.70;50.60
65038;DHT22;51605;47.040;15.294;2023-12-29T13:11:09;20.70;50.60
65038;DHT22;51605;47.040;15.294;2023-12-29T13:13:42;20.70;50.60
65038;DHT22;51605;47.040;15.294;2023-12-29T13:16:08;20.80;50.70
65038;DHT22;51605;47.040;15.294;2023-12-29T13:18:34;20.70;50.60
65038;DHT22;51605;47.040;15.294;2023-12-29T13:21:01;20.80;50.70
65038;DHT22;51605;47.040;15.294;2023-12-29T13:23:28;20.70;50.60
65038;DHT22;51605;47.040;15.294;2023-12-29T13:25:55;20.80;50.70
65038;DHT22;51605;47.040;15.294;2023-12-29T13:28:22;20.70;50.60
65038;DHT22;51605;47.040;15.294;2023-12-29T13:30:48;20.70;50.70
65038;DHT22;51605;47.040;15.294;2023-12-29T13:33:23;20.70;50.70
65038;DHT22;51605;47.040;15.294;2023-12-29T13:35:57;20.70;50.60
65038;DHT22;51605;47.040;15.294;2023-12-29T13:38:33;20.80;50.70
65038;DHT22;51605;47.040;15.294;2023-12-29T13:41:08;20.80;50.70
65038;DHT22;51605;47.040;15.294;2023-12-29T13:43:40;20.70;50.60
65038;DHT22;51605;47.040;15.294;2023-12-29T13:46:09;20.70;50.70
65038;DHT22;51605;47.040;15.294;2023-12-29T13:48:36;20.70;50.70
65038;DHT22;51605;47.040;15.294;2023-12-29T13:51:02;20.70;50.70
65038;DHT22;51605;47.040;15.294;2023-12-29T13:53:28;20.80;50.70
65038;DHT22;51605;47.040;15.294;2023-12-29T13:56:09;20.80;50.70
65038;DHT22;51605;47.040;15.294;2023-12-29T13:58:35;20.70;50.60
65038;DHT22;51605;47.040;15.294;2023-12-29T14:01:04;20.80;50.70
65038;DHT22;51605;47.040;15.294;2023-12-29T14:03:34;20.70;50.60
65038;DHT22;51605;47.040;15.294;2023-12-29T14:06:08;20.70;50.60
65038;DHT22;51605;47.040;15.294;2023-12-29T14:11:11;20.70;50.60
65038;DHT22;51605;47.040;15.294;2023-12-29T14:13:46;20.70;50.70
65038;DHT22;51605;47.040;15.294;2023-12-29T14:16:13;20.80;50.70
65038;DHT22;51605;47.040;15.294;2023-12-29T14:19:00;20.70;50.70
65038;DHT22;51605;47.040;15.294;2023-12-29T14:21:32;20.70;50.70
65038;DHT22;51605;47.040;15.294;2023-12-29T14:26:38;20.80;50.60
65038;DHT22;51605;47.040;15.294;2023-12-29T14:29:06;20.80;50.50
65038;DHT22;51605;47.040;15.294;2023-12-29T14:31:39;20.80;50.60
65038;DHT22;51605;47.040;15.294;2023-12-29T14:34:06;20.80;50.70
65038;DHT22;51605;47.040;15.294;2023-12-29T14:36:32;20.80;50.60
65038;DHT22;51605;47.040;15.294;2023-12-29T14:38:58;20.80;50.70
65038;DHT22;51605;47.040;15.294;2023-12-29T14:41:24;20.70;50.60
65038;DHT22;51605;47.040;15.294;2023-12-29T14:43:51;20.70;50.60
65038;DHT22;51605;47.040;15.294;2023-12-29T14:46:17;20.70;50.70
65038;DHT22;51605;47.040;15.294;2023-12-29T14:48:43;20.60;50.70
65038;DHT22;51605;47.040;15.294;2023-12-29T14:51:09;20.50;50.90
65038;DHT22;51605;47.040;15.294;2023-12-29T14:53:34;20.60;50.10
65038;DHT22;51605;47.040;15.294;2023-12-29T14:56:00;20.60;49.40
65038;DHT22;51605;47.040;15.294;2023-12-29T14:58:26;20.60;49.10
65038;DHT22;51605;47.040;15.294;2023-12-29T15:00:51;20.60;49.00
65038;DHT22;51605;47.040;15.294;2023-12-29T15:03:17;20.60;49.00
65038;DHT22;51605;47.040;15.294;2023-12-29T15:05:45;20.70;49.10
65038;DHT22;51605;47.040;15.294;2023-12-29T15:08:12;20.60;49.40
65038;DHT22;51605;47.040;15.294;2023-12-29T15:10:37;20.60;49.00
65038;DHT22;51605;47.040;15.294;2023-12-29T15:13:03;20.70;49.10
65038;DHT22;51605;47.040;15.294;2023-12-29T15:15:30;20.70;49.00
65038;DHT22;51605;47.040;15.294;2023-12-29T15:17:56;20.70;49.00
65038;DHT22;51605;47.040;15.294;2023-12-29T15:20:22;20.70;49.00
65038;DHT22;51605;47.040;15.294;2023-12-29T15:22:48;20.70;49.10
65038;DHT22;51605;47.040;15.294;2023-12-29T15:25:14;20.70;49.00
65038;DHT22;51605;47.040;15.294;2023-12-29T15:27:41;20.70;49.00
65038;DHT22;51605;47.040;15.294;2023-12-29T15:30:08;20.70;49.00
65038;DHT22;51605;47.040;15.294;2023-12-29T15:32:33;20.80;49.10